sensor_id;sensor_type;location;lat;lon;timestamp;temperature;humidity
67141;DHT22;54058;52.010;5.546;2022-09-28T00:00:26;9.90;88.90
67141;DHT22;54058;52.010;5.546;2022-09-28T00:02:53;9.90;89.00
67141;DHT22;54058;52.010;5.546;2022-09-28T00:05:22;9.90;89.10
67141;DHT22;54058;52.010;5.546;2022-09-28T00:07:52;9.90;89.00
67141;DHT22;54058;52.010;5.546;2022-09-28T00:10:18;9.90;89.10
67141;DHT22;54058;52.010;5.546;2022-09-28T00:12:47;10.00;89.20
67141;DHT22;54058;52.010;5.546;2022-09-28T00:15:13;10.00;89.10
67141;DHT22;54058;52.010;5.546;2022-09-28T00:17:39;10.10;89.10
67141;DHT22;54058;52.010;5.546;2022-09-28T00:20:05;10.10;89.00
67141;DHT22;54058;52.010;5.546;2022-09-28T00:22:30;10.10;89.00
67141;DHT22;54058;52.010;5.546;2022-09-28T00:24:56;10.10;89.00
67141;DHT22;54058;52.010;5.546;2022-09-28T00:27:22;10.20;88.90
67141;DHT22;54058;52.010;5.546;2022-09-28T00:29:48;10.20;88.80
67141;DHT22;54058;52.010;5.546;2022-09-28T00:32:14;10.20;89.30
67141;DHT22;54058;52.010;5.546;2022-09-28T00:34:41;10.20;88.70
67141;DHT22;54058;52.010;5.546;2022-09-28T00:37:11;10.20;88.60
67141;DHT22;54058;52.010;5.546;2022-09-28T00:39:37;10.20;88.60
67141;DHT22;54058;52.010;5.546;2022-09-28T00:42:25;10.20;88.40
67141;DHT22;54058;52.010;5.546;2022-09-28T00:44:52;10.20;88.20
67141;DHT22;54058;52.010;5.546;2022-09-28T00:47:19;10.10;88.00
67141;DHT22;54058;52.010;5.546;2022-09-28T00:52:44;10.00;88.10
67141;DHT22;54058;52.010;5.546;2022-09-28T00:55:16;9.90;88.20
67141;DHT22;54058;52.010;5.546;2022-09-28T00:57:48;9.80;88.30
67141;DHT22;54058;52.010;5.546;2022-09-28T01:00:14;9.80;88.50
67141;DHT22;54058;52.010;5.546;2022-09-28T01:02:41;9.80;88.60
67141;DHT22;54058;52.010;5.546;2022-09-28T01:05:08;9.80;88.50
67141;DHT22;54058;52.010;5.546;2022-09-28T01:07:35;9.80;88.60
67141;DHT22;54058;52.010;5.546;2022-09-28T01:10:02;9.70;88.50
67141;DHT22;54058;52.010;5.546;2022-09-28T01:12:28;9.70;88.60
67141;DHT22;54058;52.010;5.546;2022-09-28T01:14:55;9.60;88.60
67141;DHT22;54058;52.010;5.546;2022-09-28T01:28:42;9.50;88.90
67141;DHT22;54058;52.010;5.546;2022-09-28T01:31:12;9.50;88.90
67141;DHT22;54058;52.010;5.546;2022-09-28T01:33:45;9.50;89.00
67141;DHT22;54058;52.010;5.546;2022-09-28T01:36:21;9.50;88.80
67141;DHT22;54058;52.010;5.546;2022-09-28T01:38:53;9.50;88.80
67141;DHT22;54058;52.010;5.546;2022-09-28T01:41:21;9.60;88.90
67141;DHT22;54058;52.010;5.546;2022-09-28T01:43:53;9.60;88.70
67141;DHT22;54058;52.010;5.546;2022-09-28T01:46:27;9.60;88.70
67141;DHT22;54058;52.010;5.546;2022-09-28T01:49:01;9.60;88.60
67141;DHT22;54058;52.010;5.546;2022-09-28T01:54:37;9.60;88.50
67141;DHT22;54058;52.010;5.546;2022-09-28T01:57:10;9.60;88.70
67141;DHT22;54058;52.010;5.546;2022-09-28T01:59:38;9.60;88.70
67141;DHT22;54058;52.010;5.546;2022-09-28T02:02:11;9.60;88.70
67141;DHT22;54058;52.010;5.546;2022-09-28T02:04:42;9.60;88.70
67141;DHT22;54058;52.010;5.546;2022-09-28T02:07:30;9.60;88.70
67141;DHT22;54058;52.010;5.546;2022-09-28T02:10:02;9.60;88.90
67141;DHT22;54058;52.010;5.546;2022-09-28T02:12:31;9.70;89.00
67141;DHT22;54058;52.010;5.546;2022-09-28T02:17:35;9.70;88.90
67141;DHT22;54058;52.010;5.546;2022-09-28T02:20:01;9.70;88.80
67141;DHT22;54058;52.010;5.546;2022-09-28T02:22:35;9.80;88.80
67141;DHT22;54058;52.010;5.546;2022-09-28T02:25:15;9.80;88.80
67141;DHT22;54058;52.010;5.546;2022-09-28T02:28:03;9.80;88.80
67141;DHT22;54058;52.010;5.546;2022-09-28T02:30:30;9.80;88.70
67141;DHT22;54058;52.010;5.546;2022-09-28T02:33:11;9.80;88.70
67141;DHT22;54058;52.010;5.546;2022-09-28T02:35:38;9.80;88.60
67141;DHT22;54058;52.010;5.546;2022-09-28T02:38:04;9.80;88.60
67141;DHT22;54058;52.010;5.546;2022-09-28T02:40:34;9.70;88.50
67141;DHT22;54058;52.010;5.546;2022-09-28T02:51:37;9.60;89.10
67141;DHT22;54058;52.010;5.546;2022-09-28T02:54:30;9.70;89.30
67141;DHT22;54058;52.010;5.546;2022-09-28T03:00:13;9.70;89.30
67141;DHT22;54058;52.010;5.546;2022-09-28T03:05:18;9.70;89.50
67141;DHT22;54058;52.010;5.546;2022-09-28T03:08:00;9.70;89.70
67141;DHT22;54058;52.010;5.546;2022-09-28T03:10:40;9.70;89.80
67141;DHT22;54058;52.010;5.546;2022-09-28T03:13:08;9.80;89.70
67141;DHT22;54058;52.010;5.546;2022-09-28T03:15:35;9.80;89.70
67141;DHT22;54058;52.010;5.546;2022-09-28T03:18:00;9.80;89.60
67141;DHT22;54058;52.010;5.546;2022-09-28T03:20:27;9.80;89.60
67141;DHT22;54058;52.010;5.546;2022-09-28T03:22:53;9.80;89.50
67141;DHT22;54058;52.010;5.546;2022-09-28T03:25:19;9.90;89.60
67141;DHT22;54058;52.010;5.546;2022-09-28T03:27:45;9.90;89.60
67141;DHT22;54058;52.010;5.546;2022-09-28T03:30:11;9.90;89.50
67141;DHT22;54058;52.010;5.546;2022-09-28T03:32:37;9.80;89.40
67141;DHT22;54058;52.010;5.546;2022-09-28T03:35:04;9.80;89.30
67141;DHT22;54058;52.010;5.546;2022-09-28T03:37:30;9.80;89.40
67141;DHT22;54058;52.010;5.546;2022-09-28T03:39:56;9.80;89.40
67141;DHT22;54058;52.010;5.546;2022-09-28T03:42:21;9.70;89.20
67141;DHT22;54058;52.010;5.546;2022-09-28T03:44:47;9.70;89.30
67141;DHT22;54058;52.010;5.546;2022-09-28T03:47:13;9.70;89.20
67141;DHT22;54058;52.010;5.546;2022-09-28T03:49:40;9.60;89.20
67141;DHT22;54058;52.010;5.546;2022-09-28T03:52:05;9.60;89.30
67141;DHT22;54058;52.010;5.546;2022-09-28T03:54:31;9.60;89.20
67141;DHT22;54058;52.010;5.546;2022-09-28T03:56:57;9.50;89.10
67141;DHT22;54058;52.010;5.546;2022-09-28T03:59:22;9.50;89.20
67141;DHT22;54058;52.010;5.546;2022-09-28T04:01:49;9.50;89.10
67141;DHT22;54058;52.010;5.546;2022-09-28T04:04:14;9.40;89.10
67141;DHT22;54058;52.010;5.546;2022-09-28T04:06:40;9.40;89.20
67141;DHT22;54058;52.010;5.546;2022-09-28T04:09:06;9.30;89.20
67141;DHT22;54058;52.010;5.546;2022-09-28T04:11:32;9.30;89.20
67141;DHT22;54058;52.010;5.546;2022-09-28T04:13:57;9.30;89.30
67141;DHT22;54058;52.010;5.546;2022-09-28T04:16:23;9.20;89.20
67141;DHT22;54058;52.010;5.546;2022-09-28T04:18:49;9.20;89.40
67141;DHT22;54058;52.010;5.546;2022-09-28T04:21:16;9.20;89.40
67141;DHT22;54058;52.010;5.546;2022-09-28T04:23:43;9.20;89.30
67141;DHT22;54058;52.010;5.546;2022-09-28T04:26:25;9.20;89.20
67141;DHT22;54058;52.010;5.546;2022-09-28T04:28:51;9.20;89.20
67141;DHT22;54058;52.010;5.546;2022-09-28T04:31:45;9.20;89.10
67141;DHT22;54058;52.010;5.546;2022-09-28T04:34:13;9.10;89.10
67141;DHT22;54058;52.010;5.546;2022-09-28T04:36:42;9.10;89.20
67141;DHT22;54058;52.010;5.546;2022-09-28T04:39:07;9.10;89.20
67141;DHT22;54058;52.010;5.546;2022-09-28T04:41:33;9.10;89.10
67141;DHT22;54058;52.010;5.546;2022-09-28T04:43:58;9.00;89.10
67141;DHT22;54058;52.010;5.546;2022-09-28T04:46:24;9.00;89.10
67141;DHT22;54058;52.010;5.546;2022-09-28T04:48:50;9.00;89.10
67141;DHT22;54058;52.010;5.546;2022-09-28T04:51:16;8.90;89.00
67141;DHT22;54058;52.010;5.546;2022-09-28T04:53:41;9.00;89.20
67141;DHT22;54058;52.010;5.546;2022-09-28T04:56:10;9.00;89.00
67141;DHT22;54058;52.010;5.546;2022-09-28T04:58:37;8.90;89.00
67141;DHT22;54058;52.010;5.546;2022-09-28T05:01:05;8.90;89.00
67141;DHT22;54058;52.010;5.546;2022-09-28T05:03:31;8.90;89.10
67141;DHT22;54058;52.010;5.546;2022-09-28T05:05:57;8.70;89.10
67141;DHT22;54058;52.010;5.546;2022-09-28T05:08:23;8.70;89.10
67141;DHT22;54058;52.010;5.546;2022-09-28T05:10:56;8.70;89.30
67141;DHT22;54058;52.010;5.546;2022-09-28T05:13:23;8.70;89.20
67141;DHT22;54058;52.010;5.546;2022-09-28T05:15:52;8.70;89.30
67141;DHT22;54058;52.010;5.546;2022-09-28T05:18:19;8.70;89.30
67141;DHT22;54058;52.010;5.546;2022-09-28T05:20:44;8.70;89.10
67141;DHT22;54058;52.010;5.546;2022-09-28T05:23:11;8.70;89.30
67141;DHT22;54058;52.010;5.546;2022-09-28T05:25:37;8.60;89.20
67141;DHT22;54058;52.010;5.546;2022-09-28T05:28:03;8.60;89.30
67141;DHT22;54058;52.010;5.546;2022-09-28T05:30:29;8.60;89.40
67141;DHT22;54058;52.010;5.546;2022-09-28T05:32:54;8.60;89.40
67141;DHT22;54058;52.010;5.546;2022-09-28T05:35:20;8.60;89.40
67141;DHT22;54058;52.010;5.546;2022-09-28T05:37:46;8.60;89.50
67141;DHT22;54058;52.010;5.546;2022-09-28T05:40:11;8.60;89.40
67141;DHT22;54058;52.010;5.546;2022-09-28T05:42:37;8.60;89.40
67141;DHT22;54058;52.010;5.546;2022-09-28T05:45:03;8.60;89.40
67141;DHT22;54058;52.010;5.546;2022-09-28T05:47:29;8.70;89.30
67141;DHT22;54058;52.010;5.546;2022-09-28T05:49:55;8.60;89.30
67141;DHT22;54058;52.010;5.546;2022-09-28T05:52:20;8.70;89.30
67141;DHT22;54058;52.010;5.546;2022-09-28T05:54:46;8.60;89.30
67141;DHT22;54058;52.010;5.546;2022-09-28T05:57:12;8.60;89.40
67141;DHT22;54058;52.010;5.546;2022-09-28T05:59:38;8.60;89.40
67141;DHT22;54058;52.010;5.546;2022-09-28T06:02:04;8.60;89.30
67141;DHT22;54058;52.010;5.546;2022-09-28T06:04:30;8.60;89.30
67141;DHT22;54058;52.010;5.546;2022-09-28T06:06:56;8.60;89.30
67141;DHT22;54058;52.010;5.546;2022-09-28T06:09:23;8.60;89.40
67141;DHT22;54058;52.010;5.546;2022-09-28T06:11:49;8.60;89.50
67141;DHT22;54058;52.010;5.546;2022-09-28T06:14:15;8.60;89.70
67141;DHT22;54058;52.010;5.546;2022-09-28T06:16:41;8.60;89.60
67141;DHT22;54058;52.010;5.546;2022-09-28T06:19:07;8.70;89.60
67141;DHT22;54058;52.010;5.546;2022-09-28T06:21:33;8.70;89.70
67141;DHT22;54058;52.010;5.546;2022-09-28T06:23:59;8.70;89.60
67141;DHT22;54058;52.010;5.546;2022-09-28T06:26:24;8.80;89.60
67141;DHT22;54058;52.010;5.546;2022-09-28T06:28:50;8.80;89.50
67141;DHT22;54058;52.010;5.546;2022-09-28T06:31:15;8.90;89.60
67141;DHT22;54058;52.010;5.546;2022-09-28T06:33:42;8.90;89.50
67141;DHT22;54058;52.010;5.546;2022-09-28T06:36:08;9.00;89.50
67141;DHT22;54058;52.010;5.546;2022-09-28T06:38:35;9.00;89.40
67141;DHT22;54058;52.010;5.546;2022-09-28T06:41:00;9.00;89.30
67141;DHT22;54058;52.010;5.546;2022-09-28T06:43:26;9.10;89.40
67141;DHT22;54058;52.010;5.546;2022-09-28T06:45:54;9.10;89.40
67141;DHT22;54058;52.010;5.546;2022-09-28T06:48:19;9.10;89.40
67141;DHT22;54058;52.010;5.546;2022-09-28T06:50:45;9.20;89.50
67141;DHT22;54058;52.010;5.546;2022-09-28T06:53:13;9.20;89.40
67141;DHT22;54058;52.010;5.546;2022-09-28T06:55:40;9.30;89.50
67141;DHT22;54058;52.010;5.546;2022-09-28T06:58:09;9.30;89.50
67141;DHT22;54058;52.010;5.546;2022-09-28T07:00:36;9.30;89.50
67141;DHT22;54058;52.010;5.546;2022-09-28T07:03:07;9.30;89.60
67141;DHT22;54058;52.010;5.546;2022-09-28T07:05:34;9.40;90.00
67141;DHT22;54058;52.010;5.546;2022-09-28T07:08:03;9.70;90.00
67141;DHT22;54058;52.010;5.546;2022-09-28T07:10:29;9.90;89.90
67141;DHT22;54058;52.010;5.546;2022-09-28T07:12:57;9.90;89.80
67141;DHT22;54058;52.010;5.546;2022-09-28T07:15:25;10.40;90.00
67141;DHT22;54058;52.010;5.546;2022-09-28T07:18:02;11.00;89.50
67141;DHT22;54058;52.010;5.546;2022-09-28T07:20:28;11.50;88.80
67141;DHT22;54058;52.010;5.546;2022-09-28T07:22:55;11.70;88.00
67141;DHT22;54058;52.010;5.546;2022-09-28T07:25:22;11.40;88.00
67141;DHT22;54058;52.010;5.546;2022-09-28T07:27:48;11.60;88.30
67141;DHT22;54058;52.010;5.546;2022-09-28T07:30:14;11.70;87.70
67141;DHT22;54058;52.010;5.546;2022-09-28T07:32:40;11.70;88.00
67141;DHT22;54058;52.010;5.546;2022-09-28T07:35:06;12.20;88.00
67141;DHT22;54058;52.010;5.546;2022-09-28T07:37:35;12.20;87.50
67141;DHT22;54058;52.010;5.546;2022-09-28T07:40:03;11.90;87.70
67141;DHT22;54058;52.010;5.546;2022-09-28T07:42:48;11.70;88.10
67141;DHT22;54058;52.010;5.546;2022-09-28T07:45:14;11.50;88.60
67141;DHT22;54058;52.010;5.546;2022-09-28T07:47:40;11.30;88.80
67141;DHT22;54058;52.010;5.546;2022-09-28T07:50:06;11.20;89.00
67141;DHT22;54058;52.010;5.546;2022-09-28T07:52:31;11.20;89.10
67141;DHT22;54058;52.010;5.546;2022-09-28T07:55:00;11.20;89.10
67141;DHT22;54058;52.010;5.546;2022-09-28T07:57:26;11.30;89.30
67141;DHT22;54058;52.010;5.546;2022-09-28T07:59:52;11.30;89.20
67141;DHT22;54058;52.010;5.546;2022-09-28T08:02:20;11.40;89.10
67141;DHT22;54058;52.010;5.546;2022-09-28T08:04:47;11.40;89.00
67141;DHT22;54058;52.010;5.546;2022-09-28T08:07:13;11.40;88.90
67141;DHT22;54058;52.010;5.546;2022-09-28T08:09:43;11.40;88.90
67141;DHT22;54058;52.010;5.546;2022-09-28T08:12:09;11.50;88.80
67141;DHT22;54058;52.010;5.546;2022-09-28T08:14:35;11.50;88.70
67141;DHT22;54058;52.010;5.546;2022-09-28T08:17:05;11.60;88.60
67141;DHT22;54058;52.010;5.546;2022-09-28T08:19:32;11.60;88.50
67141;DHT22;54058;52.010;5.546;2022-09-28T08:22:17;11.60;88.40
67141;DHT22;54058;52.010;5.546;2022-09-28T08:24:47;11.60;88.40
67141;DHT22;54058;52.010;5.546;2022-09-28T08:27:14;11.70;88.40
67141;DHT22;54058;52.010;5.546;2022-09-28T08:29:41;11.70;88.50
67141;DHT22;54058;52.010;5.546;2022-09-28T08:32:08;11.70;88.50
67141;DHT22;54058;52.010;5.546;2022-09-28T08:34:38;11.80;88.50
67141;DHT22;54058;52.010;5.546;2022-09-28T08:37:05;11.80;88.30
67141;DHT22;54058;52.010;5.546;2022-09-28T08:39:31;11.80;88.40
67141;DHT22;54058;52.010;5.546;2022-09-28T08:42:02;11.80;88.40
67141;DHT22;54058;52.010;5.546;2022-09-28T08:44:46;11.80;88.40
67141;DHT22;54058;52.010;5.546;2022-09-28T08:47:21;11.90;88.90
67141;DHT22;54058;52.010;5.546;2022-09-28T08:50:15;11.90;88.30
67141;DHT22;54058;52.010;5.546;2022-09-28T08:52:44;11.90;88.20
67141;DHT22;54058;52.010;5.546;2022-09-28T08:55:29;12.00;88.10
67141;DHT22;54058;52.010;5.546;2022-09-28T09:00:46;12.10;88.00
67141;DHT22;54058;52.010;5.546;2022-09-28T09:03:17;12.10;88.00
67141;DHT22;54058;52.010;5.546;2022-09-28T09:16:46;12.30;88.00
67141;DHT22;54058;52.010;5.546;2022-09-28T09:19:26;12.40;87.80
67141;DHT22;54058;52.010;5.546;2022-09-28T09:22:17;12.50;87.90
67141;DHT22;54058;52.010;5.546;2022-09-28T09:24:54;12.60;87.70
67141;DHT22;54058;52.010;5.546;2022-09-28T09:27:40;12.70;87.80
67141;DHT22;54058;52.010;5.546;2022-09-28T09:30:13;12.80;87.90
67141;DHT22;54058;52.010;5.546;2022-09-28T09:33:09;12.90;87.60
67141;DHT22;54058;52.010;5.546;2022-09-28T09:35:50;13.00;87.10
67141;DHT22;54058;52.010;5.546;2022-09-28T09:46:35;13.10;86.80
67141;DHT22;54058;52.010;5.546;2022-09-28T09:49:13;13.20;87.30
67141;DHT22;54058;52.010;5.546;2022-09-28T09:51:51;13.20;87.10
67141;DHT22;54058;52.010;5.546;2022-09-28T09:57:20;13.30;86.80
67141;DHT22;54058;52.010;5.546;2022-09-28T09:59:47;13.30;86.90
67141;DHT22;54058;52.010;5.546;2022-09-28T10:02:33;13.40;87.30
67141;DHT22;54058;52.010;5.546;2022-09-28T10:05:25;13.50;86.80
67141;DHT22;54058;52.010;5.546;2022-09-28T10:10:37;13.50;86.70
67141;DHT22;54058;52.010;5.546;2022-09-28T10:13:04;13.50;87.30
67141;DHT22;54058;52.010;5.546;2022-09-28T10:15:32;13.50;87.20
67141;DHT22;54058;52.010;5.546;2022-09-28T10:18:05;13.40;86.90
67141;DHT22;54058;52.010;5.546;2022-09-28T10:20:38;13.40;86.90
67141;DHT22;54058;52.010;5.546;2022-09-28T10:23:09;13.40;86.90
67141;DHT22;54058;52.010;5.546;2022-09-28T10:25:37;13.40;87.00
67141;DHT22;54058;52.010;5.546;2022-09-28T10:28:09;13.40;87.00
67141;DHT22;54058;52.010;5.546;2022-09-28T10:30:37;13.40;87.00
67141;DHT22;54058;52.010;5.546;2022-09-28T10:33:32;13.40;87.00
67141;DHT22;54058;52.010;5.546;2022-09-28T10:35:59;13.50;86.80
67141;DHT22;54058;52.010;5.546;2022-09-28T10:38:25;13.70;87.00
67141;DHT22;54058;52.010;5.546;2022-09-28T10:40:58;13.90;84.40
67141;DHT22;54058;52.010;5.546;2022-09-28T10:43:30;13.90;86.00
67141;DHT22;54058;52.010;5.546;2022-09-28T10:51:11;13.80;86.20
67141;DHT22;54058;52.010;5.546;2022-09-28T10:53:37;14.00;86.50
67141;DHT22;54058;52.010;5.546;2022-09-28T10:56:06;14.20;86.00
67141;DHT22;54058;52.010;5.546;2022-09-28T10:58:37;14.40;85.50
67141;DHT22;54058;52.010;5.546;2022-09-28T11:01:14;14.60;85.20
67141;DHT22;54058;52.010;5.546;2022-09-28T11:03:54;14.80;84.90
67141;DHT22;54058;52.010;5.546;2022-09-28T11:06:30;15.10;84.00
67141;DHT22;54058;52.010;5.546;2022-09-28T11:09:05;15.20;84.20
67141;DHT22;54058;52.010;5.546;2022-09-28T11:11:39;15.10;83.80
67141;DHT22;54058;52.010;5.546;2022-09-28T11:17:13;14.90;83.60
67141;DHT22;54058;52.010;5.546;2022-09-28T11:19:39;14.70;83.80
67141;DHT22;54058;52.010;5.546;2022-09-28T11:24:51;14.70;84.80
67141;DHT22;54058;52.010;5.546;2022-09-28T11:27:26;14.80;85.60
67141;DHT22;54058;52.010;5.546;2022-09-28T11:29:57;14.90;84.80
67141;DHT22;54058;52.010;5.546;2022-09-28T11:32:29;15.00;83.90
67141;DHT22;54058;52.010;5.546;2022-09-28T11:34:57;15.10;83.10
67141;DHT22;54058;52.010;5.546;2022-09-28T11:48:01;15.10;80.50
67141;DHT22;54058;52.010;5.546;2022-09-28T11:50:57;15.30;84.50
67141;DHT22;54058;52.010;5.546;2022-09-28T11:53:50;15.50;83.10
67141;DHT22;54058;52.010;5.546;2022-09-28T11:59:16;15.70;83.20
67141;DHT22;54058;52.010;5.546;2022-09-28T12:01:52;15.60;82.90
67141;DHT22;54058;52.010;5.546;2022-09-28T12:04:30;15.50;82.50
67141;DHT22;54058;52.010;5.546;2022-09-28T12:07:17;15.40;82.70
67141;DHT22;54058;52.010;5.546;2022-09-28T12:14:53;15.70;82.20
67141;DHT22;54058;52.010;5.546;2022-09-28T12:17:23;16.00;82.00
67141;DHT22;54058;52.010;5.546;2022-09-28T12:23:17;16.30;79.00
67141;DHT22;54058;52.010;5.546;2022-09-28T12:25:53;16.30;78.10
67141;DHT22;54058;52.010;5.546;2022-09-28T12:28:41;16.30;80.50
67141;DHT22;54058;52.010;5.546;2022-09-28T12:31:34;16.20;78.60
67141;DHT22;54058;52.010;5.546;2022-09-28T12:34:02;16.10;80.70
67141;DHT22;54058;52.010;5.546;2022-09-28T12:36:44;16.00;81.40
67141;DHT22;54058;52.010;5.546;2022-09-28T12:42:12;15.60;81.10
67141;DHT22;54058;52.010;5.546;2022-09-28T12:53:57;14.90;83.40
67141;DHT22;54058;52.010;5.546;2022-09-28T12:56:00;14.90;83.50
67141;DHT22;54058;52.010;5.546;2022-09-28T13:01:40;14.70;84.20
67141;DHT22;54058;52.010;5.546;2022-09-28T13:10:16;14.50;84.90
67141;DHT22;54058;52.010;5.546;2022-09-28T13:18:05;14.30;85.30
67141;DHT22;54058;52.010;5.546;2022-09-28T13:23:29;14.10;85.10
67141;DHT22;54058;52.010;5.546;2022-09-28T13:26:24;13.90;85.60
67141;DHT22;54058;52.010;5.546;2022-09-28T13:28:54;13.80;85.80
67141;DHT22;54058;52.010;5.546;2022-09-28T13:31:23;13.70;86.00
67141;DHT22;54058;52.010;5.546;2022-09-28T13:34:01;13.70;86.00
67141;DHT22;54058;52.010;5.546;2022-09-28T13:38:54;13.60;85.80
67141;DHT22;54058;52.010;5.546;2022-09-28T13:41:29;13.60;86.00
67141;DHT22;54058;52.010;5.546;2022-09-28T13:58:26;13.20;86.00
67141;DHT22;54058;52.010;5.546;2022-09-28T14:01:23;13.10;85.80
67141;DHT22;54058;52.010;5.546;2022-09-28T14:06:36;13.00;85.90
67141;DHT22;54058;52.010;5.546;2022-09-28T14:09:24;13.00;86.00
67141;DHT22;54058;52.010;5.546;2022-09-28T14:11:57;13.00;86.00
67141;DHT22;54058;52.010;5.546;2022-09-28T14:14:27;12.90;86.00
67141;DHT22;54058;52.010;5.546;2022-09-28T14:19:55;12.80;85.80
67141;DHT22;54058;52.010;5.546;2022-09-28T14:27:57;12.80;86.00
67141;DHT22;54058;52.010;5.546;2022-09-28T14:33:15;12.80;85.70
67141;DHT22;54058;52.010;5.546;2022-09-28T14:35:54;12.70;85.60
67141;DHT22;54058;52.010;5.546;2022-09-28T14:38:33;12.80;85.80
67141;DHT22;54058;52.010;5.546;2022-09-28T14:41:34;12.80;85.70
67141;DHT22;54058;52.010;5.546;2022-09-28T14:44:02;12.80;85.50
67141;DHT22;54058;52.010;5.546;2022-09-28T14:46:29;12.80;85.60
67141;DHT22;54058;52.010;5.546;2022-09-28T14:54:16;12.90;85.70
67141;DHT22;54058;52.010;5.546;2022-09-28T14:59:26;12.80;85.80
67141;DHT22;54058;52.010;5.546;2022-09-28T15:02:03;12.80;85.90
67141;DHT22;54058;52.010;5.546;2022-09-28T15:04:33;12.80;86.00
67141;DHT22;54058;52.010;5.546;2022-09-28T15:07:00;12.90;86.00
67141;DHT22;54058;52.010;5.546;2022-09-28T15:09:34;12.90;86.20
67141;DHT22;54058;52.010;5.546;2022-09-28T15:12:00;12.90;85.90
67141;DHT22;54058;52.010;5.546;2022-09-28T15:14:28;13.00;85.90
67141;DHT22;54058;52.010;5.546;2022-09-28T15:17:08;13.00;85.90
67141;DHT22;54058;52.010;5.546;2022-09-28T15:19:50;13.00;85.80
67141;DHT22;54058;52.010;5.546;2022-09-28T15:22:19;13.00;85.80
67141;DHT22;54058;52.010;5.546;2022-09-28T15:24:57;13.00;85.80
67141;DHT22;54058;52.010;5.546;2022-09-28T15:27:24;13.00;85.80
67141;DHT22;54058;52.010;5.546;2022-09-28T15:29:59;13.00;85.70
67141;DHT22;54058;52.010;5.546;2022-09-28T15:32:26;12.90;85.60
67141;DHT22;54058;52.010;5.546;2022-09-28T15:34:53;12.90;85.80
67141;DHT22;54058;52.010;5.546;2022-09-28T15:37:27;12.90;85.80
67141;DHT22;54058;52.010;5.546;2022-09-28T15:39:55;12.90;85.70
67141;DHT22;54058;52.010;5.546;2022-09-28T15:42:22;12.80;85.90
67141;DHT22;54058;52.010;5.546;2022-09-28T15:45:21;12.90;86.10
67141;DHT22;54058;52.010;5.546;2022-09-28T15:47:55;12.90;86.10
67141;DHT22;54058;52.010;5.546;2022-09-28T15:50:27;13.00;86.30
67141;DHT22;54058;52.010;5.546;2022-09-28T15:52:57;12.90;86.00
67141;DHT22;54058;52.010;5.546;2022-09-28T15:55:34;12.90;86.00
67141;DHT22;54058;52.010;5.546;2022-09-28T15:58:18;13.00;86.00
67141;DHT22;54058;52.010;5.546;2022-09-28T16:00:48;13.00;85.90
67141;DHT22;54058;52.010;5.546;2022-09-28T16:03:28;12.90;85.90
67141;DHT22;54058;52.010;5.546;2022-09-28T16:16:14;12.90;86.00
67141;DHT22;54058;52.010;5.546;2022-09-28T16:18:46;12.80;86.10
67141;DHT22;54058;52.010;5.546;2022-09-28T16:21:22;12.90;86.20
67141;DHT22;54058;52.010;5.546;2022-09-28T16:23:52;12.90;86.30
67141;DHT22;54058;52.010;5.546;2022-09-28T16:26:31;12.80;86.20
67141;DHT22;54058;52.010;5.546;2022-09-28T16:28:57;12.80;86.20
67141;DHT22;54058;52.010;5.546;2022-09-28T16:31:29;12.80;86.30
67141;DHT22;54058;52.010;5.546;2022-09-28T16:34:15;12.80;86.30
67141;DHT22;54058;52.010;5.546;2022-09-28T16:36:43;12.80;86.20
67141;DHT22;54058;52.010;5.546;2022-09-28T16:39:11;12.70;86.30
67141;DHT22;54058;52.010;5.546;2022-09-28T16:41:39;12.70;86.40
67141;DHT22;54058;52.010;5.546;2022-09-28T16:44:14;12.70;86.30
67141;DHT22;54058;52.010;5.546;2022-09-28T16:46:42;12.70;86.30
67141;DHT22;54058;52.010;5.546;2022-09-28T16:49:14;12.60;86.30
67141;DHT22;54058;52.010;5.546;2022-09-28T16:51:44;12.50;86.30
67141;DHT22;54058;52.010;5.546;2022-09-28T16:54:18;12.40;86.50
67141;DHT22;54058;52.010;5.546;2022-09-28T16:57:05;12.40;86.50
67141;DHT22;54058;52.010;5.546;2022-09-28T16:59:31;12.30;86.60
67141;DHT22;54058;52.010;5.546;2022-09-28T17:01:57;12.20;86.70
67141;DHT22;54058;52.010;5.546;2022-09-28T17:04:24;12.20;86.70
67141;DHT22;54058;52.010;5.546;2022-09-28T17:06:50;12.20;86.70
67141;DHT22;54058;52.010;5.546;2022-09-28T17:09:18;12.10;86.60
67141;DHT22;54058;52.010;5.546;2022-09-28T17:11:44;12.20;86.70
67141;DHT22;54058;52.010;5.546;2022-09-28T17:14:10;12.10;86.60
67141;DHT22;54058;52.010;5.546;2022-09-28T17:16:36;12.00;86.50
67141;DHT22;54058;52.010;5.546;2022-09-28T17:19:22;12.00;87.20
67141;DHT22;54058;52.010;5.546;2022-09-28T17:21:48;11.90;86.80
67141;DHT22;54058;52.010;5.546;2022-09-28T17:24:14;11.80;86.70
67141;DHT22;54058;52.010;5.546;2022-09-28T17:26:40;11.70;86.70
67141;DHT22;54058;52.010;5.546;2022-09-28T17:29:11;11.60;86.90
67141;DHT22;54058;52.010;5.546;2022-09-28T17:31:39;11.60;87.00
67141;DHT22;54058;52.010;5.546;2022-09-28T17:34:05;11.60;86.90
67141;DHT22;54058;52.010;5.546;2022-09-28T17:36:31;11.60;86.90
67141;DHT22;54058;52.010;5.546;2022-09-28T17:38:57;11.60;86.90
67141;DHT22;54058;52.010;5.546;2022-09-28T17:41:22;11.60;86.80
67141;DHT22;54058;52.010;5.546;2022-09-28T17:43:48;11.60;86.80
67141;DHT22;54058;52.010;5.546;2022-09-28T17:48:52;11.50;86.80
67141;DHT22;54058;52.010;5.546;2022-09-28T17:51:18;11.40;86.80
67141;DHT22;54058;52.010;5.546;2022-09-28T17:53:44;11.40;86.80
67141;DHT22;54058;52.010;5.546;2022-09-28T17:56:09;11.40;86.70
67141;DHT22;54058;52.010;5.546;2022-09-28T17:58:35;11.40;86.70
67141;DHT22;54058;52.010;5.546;2022-09-28T18:01:01;11.40;86.70
67141;DHT22;54058;52.010;5.546;2022-09-28T18:03:26;11.30;86.60
67141;DHT22;54058;52.010;5.546;2022-09-28T18:06:04;11.40;86.70
67141;DHT22;54058;52.010;5.546;2022-09-28T18:08:31;11.40;86.70
67141;DHT22;54058;52.010;5.546;2022-09-28T18:10:57;11.30;86.60
67141;DHT22;54058;52.010;5.546;2022-09-28T18:13:23;11.30;86.50
67141;DHT22;54058;52.010;5.546;2022-09-28T18:15:50;11.30;86.50
67141;DHT22;54058;52.010;5.546;2022-09-28T18:18:16;11.20;86.40
67141;DHT22;54058;52.010;5.546;2022-09-28T18:20:42;11.20;86.40
67141;DHT22;54058;52.010;5.546;2022-09-28T18:23:07;11.20;86.50
67141;DHT22;54058;52.010;5.546;2022-09-28T18:25:33;11.10;86.40
67141;DHT22;54058;52.010;5.546;2022-09-28T18:27:59;11.10;86.60
67141;DHT22;54058;52.010;5.546;2022-09-28T18:30:25;11.00;86.60
67141;DHT22;54058;52.010;5.546;2022-09-28T18:32:52;10.90;86.60
67141;DHT22;54058;52.010;5.546;2022-09-28T18:35:18;10.90;86.70
67141;DHT22;54058;52.010;5.546;2022-09-28T18:37:44;10.90;86.80
67141;DHT22;54058;52.010;5.546;2022-09-28T18:40:11;10.80;86.90
67141;DHT22;54058;52.010;5.546;2022-09-28T18:42:40;10.80;87.00
67141;DHT22;54058;52.010;5.546;2022-09-28T18:45:07;10.80;87.10
67141;DHT22;54058;52.010;5.546;2022-09-28T18:47:36;10.70;87.00
67141;DHT22;54058;52.010;5.546;2022-09-28T18:50:01;10.60;87.10
67141;DHT22;54058;52.010;5.546;2022-09-28T18:52:27;10.60;87.20